createdAt,value
2019-05-14T00:00:12.631Z,5.58
2019-05-14T00:02:38.432Z,5.56
2019-05-14T00:05:04.828Z,5.54
2019-05-14T00:07:32.114Z,5.42
2019-05-14T00:09:57.940Z,5.37
2019-05-14T00:12:23.733Z,5.30
2019-05-14T00:14:51.466Z,5.31
2019-05-14T00:17:17.226Z,5.22
2019-05-14T00:19:43.009Z,5.16
2019-05-14T00:22:08.809Z,5.14
2019-05-14T00:24:34.587Z,5.03
2019-05-14T00:27:02.077Z,5.01
2019-05-14T00:29:28.069Z,4.94
2019-05-14T00:31:53.864Z,4.91
2019-05-14T00:34:21.500Z,4.82
2019-05-14T00:36:47.369Z,4.71
2019-05-14T00:39:13.156Z,4.70
2019-05-14T00:41:38.938Z,4.65
2019-05-14T00:44:04.735Z,4.61
2019-05-14T00:46:31.558Z,4.54
2019-05-14T00:48:57.434Z,4.49
2019-05-14T00:51:23.214Z,4.45
2019-05-14T00:53:51.379Z,4.42
2019-05-14T00:56:16.705Z,4.37
2019-05-14T00:58:42.500Z,4.34
2019-05-14T01:01:08.289Z,4.29
2019-05-14T01:03:34.085Z,4.26
2019-05-14T01:06:02.209Z,4.27
2019-05-14T01:08:27.603Z,4.20
2019-05-14T01:10:53.381Z,4.22
2019-05-14T01:13:19.185Z,4.22
2019-05-14T01:15:44.968Z,4.11
2019-05-14T01:18:11.400Z,4.06
2019-05-14T01:20:37.252Z,4.00
2019-05-14T01:23:03.363Z,3.97
2019-05-14T01:25:31.560Z,3.93
2019-05-14T01:27:56.836Z,3.91
2019-05-14T01:30:22.625Z,3.86
2019-05-14T01:32:48.406Z,3.75
2019-05-14T01:35:14.218Z,3.62
2019-05-14T01:37:41.641Z,3.62
2019-05-14T01:40:07.909Z,3.61
2019-05-14T01:42:33.685Z,3.60
2019-05-14T01:44:59.483Z,3.57
2019-05-14T01:47:25.278Z,3.54
2019-05-14T01:49:51.671Z,3.56
2019-05-14T01:52:17.456Z,3.60
2019-05-14T01:54:43.248Z,3.56
2019-05-14T01:57:11.301Z,3.47
2019-05-14T01:59:36.733Z,3.48
2019-05-14T02:02:02.607Z,3.47
2019-05-14T02:04:28.409Z,3.41
2019-05-14T02:06:54.201Z,3.42
2019-05-14T02:09:21.564Z,3.38
2019-05-14T02:11:47.482Z,3.40
2019-05-14T02:14:13.274Z,3.36
2019-05-14T02:16:39.056Z,3.40
2019-05-14T02:19:05.341Z,3.45
2019-05-14T02:21:31.743Z,3.41
2019-05-14T02:23:57.726Z,3.37
2019-05-14T02:26:23.624Z,3.32
2019-05-14T02:28:51.463Z,3.29
2019-05-14T02:31:20.235Z,3.26
2019-05-14T02:33:44.791Z,3.25
2019-05-14T02:36:10.758Z,3.31
2019-05-14T02:38:38.898Z,3.41
2019-05-14T02:41:04.306Z,3.50
2019-05-14T02:43:30.078Z,3.56
2019-05-14T02:46:09.695Z,3.58
2019-05-14T02:48:23.559Z,3.57
2019-05-14T02:50:49.812Z,3.64
2019-05-14T02:53:15.638Z,3.62
2019-05-14T02:55:41.435Z,3.67
2019-05-14T02:58:09.755Z,3.60
2019-05-14T03:00:34.920Z,3.49
2019-05-14T03:03:00.707Z,3.38
2019-05-14T03:05:29.332Z,3.34
2019-05-14T03:07:54.207Z,3.26
2019-05-14T03:10:20.014Z,3.22
2019-05-14T03:12:45.823Z,3.17
2019-05-14T03:15:11.792Z,3.14
2019-05-14T03:17:40.447Z,3.13
2019-05-14T03:20:08.847Z,3.15
2019-05-14T03:22:52.491Z,3.12
2019-05-14T03:25:01.261Z,3.08
2019-05-14T03:27:30.471Z,2.99
2019-05-14T03:29:54.834Z,3.01
2019-05-14T03:32:22.650Z,3.00
2019-05-14T03:34:52.918Z,2.97
2019-05-14T03:37:16.033Z,2.94
2019-05-14T03:39:41.809Z,2.93
2019-05-14T03:42:09.582Z,2.94
2019-05-14T03:44:35.297Z,2.88
2019-05-14T03:47:04.969Z,2.89
2019-05-14T03:49:29.044Z,2.91
2019-05-14T03:51:54.885Z,2.96
2019-05-14T03:54:20.662Z,2.96
2019-05-14T03:56:49.321Z,2.93
2019-05-14T03:59:14.333Z,2.97
2019-05-14T04:01:40.458Z,2.97
2019-05-14T04:04:09.952Z,2.98
2019-05-14T04:06:34.576Z,3.00
2019-05-14T04:09:01.366Z,2.98
2019-05-14T04:11:30.569Z,3.05
2019-05-14T04:14:00.129Z,3.35
2019-05-14T04:16:29.186Z,3.58
2019-05-14T04:18:59.430Z,3.71
2019-05-14T04:21:25.375Z,3.87
2019-05-14T04:23:53.059Z,4.08
2019-05-14T04:26:19.988Z,4.22
2019-05-14T04:28:49.478Z,4.28
2019-05-14T04:31:14.340Z,4.38
2019-05-14T04:33:43.726Z,4.46
2019-05-14T04:36:10.212Z,4.53
2019-05-14T04:38:36.108Z,4.65
2019-05-14T04:41:01.884Z,4.74
2019-05-14T04:43:29.458Z,4.86
2019-05-14T04:45:58.849Z,4.97
2019-05-14T04:48:32.484Z,5.07
2019-05-14T04:50:50.949Z,5.15
2019-05-14T04:53:19.461Z,5.26
2019-05-14T04:55:44.436Z,5.36
2019-05-14T04:58:10.631Z,5.49
2019-05-14T05:00:38.929Z,5.59
2019-05-14T05:03:08.262Z,5.70
2019-05-14T05:05:33.408Z,5.76
2019-05-14T05:07:59.827Z,5.93
2019-05-14T05:10:25.681Z,6.07
2019-05-14T05:12:51.502Z,6.18
2019-05-14T05:15:19.804Z,6.34
2019-05-14T05:17:51.845Z,6.41
2019-05-14T05:20:12.775Z,6.53
2019-05-14T05:22:39.381Z,6.62
2019-05-14T05:25:08.245Z,6.73
2019-05-14T05:27:33.443Z,6.84
2019-05-14T05:29:59.237Z,6.91
2019-05-14T05:32:25.020Z,6.97
2019-05-14T05:34:50.823Z,7.03
2019-05-14T05:37:18.815Z,7.11
2019-05-14T05:39:44.406Z,7.33
2019-05-14T05:42:10.186Z,7.33
2019-05-14T05:44:36.085Z,7.46
2019-05-14T05:47:01.863Z,7.60
2019-05-14T05:49:29.192Z,7.72
2019-05-14T05:51:55.109Z,7.83
2019-05-14T05:54:20.914Z,7.89
2019-05-14T05:56:48.171Z,7.93
2019-05-14T05:59:14.105Z,8.10
2019-05-14T06:01:46.041Z,8.10
2019-05-14T06:04:08.695Z,8.26
2019-05-14T06:06:34.749Z,8.26
2019-05-14T06:09:00.552Z,8.36
2019-05-14T06:11:28.865Z,8.59
2019-05-14T06:13:54.034Z,8.67
2019-05-14T06:16:19.821Z,8.69
2019-05-14T06:18:48.148Z,8.85
2019-05-14T06:21:13.325Z,8.91
2019-05-14T06:23:39.106Z,8.91
2019-05-14T06:26:04.908Z,9.02
2019-05-14T06:28:33.501Z,9.15
2019-05-14T06:30:58.917Z,9.22
2019-05-14T06:33:24.917Z,9.36
2019-05-14T06:35:50.716Z,9.36
2019-05-14T06:38:18.493Z,9.42
2019-05-14T06:40:44.214Z,9.39
2019-05-14T06:43:10.000Z,9.55
2019-05-14T06:45:38.181Z,9.59
2019-05-14T06:48:03.486Z,9.62
2019-05-14T06:50:29.297Z,9.64
2019-05-14T06:52:55.082Z,9.80
2019-05-14T06:55:20.885Z,9.99
2019-05-14T06:57:48.040Z,10.34
2019-05-14T07:00:14.273Z,10.41
2019-05-14T07:02:43.539Z,10.63
2019-05-14T07:05:08.493Z,10.64
2019-05-14T07:07:34.349Z,10.58
2019-05-14T07:10:00.294Z,10.66
2019-05-14T07:12:26.089Z,10.56
2019-05-14T07:14:54.049Z,10.90
2019-05-14T07:17:19.863Z,10.97
2019-05-14T07:19:45.641Z,11.20
2019-05-14T07:22:11.444Z,11.36
2019-05-14T07:24:40.476Z,11.38
2019-05-14T07:27:05.042Z,11.52
2019-05-14T07:29:30.826Z,11.57
2019-05-14T07:31:58.257Z,11.65
2019-05-14T07:34:24.229Z,11.80
2019-05-14T07:36:50.034Z,12.18
2019-05-14T07:39:18.538Z,12.58
2019-05-14T07:41:43.659Z,13.24
2019-05-14T07:44:09.446Z,13.22
2019-05-14T07:46:35.241Z,13.27
2019-05-14T07:49:08.108Z,13.45
2019-05-14T07:51:28.736Z,13.72
2019-05-14T07:53:54.518Z,14.09
2019-05-14T07:56:31.968Z,14.20
2019-05-14T07:58:58.478Z,14.50
2019-05-14T08:01:25.496Z,14.27
2019-05-14T08:03:51.287Z,14.63
2019-05-14T08:06:18.978Z,14.45
2019-05-14T08:08:44.816Z,13.80
2019-05-14T08:11:10.605Z,13.44
2019-05-14T08:13:38.779Z,13.69
2019-05-14T08:16:04.093Z,13.55
2019-05-14T08:18:29.891Z,14.32
2019-05-14T08:20:55.679Z,14.37
2019-05-14T08:23:21.483Z,14.30
2019-05-14T08:25:48.080Z,14.76
2019-05-14T08:28:14.062Z,15.32
2019-05-14T08:30:39.859Z,15.70
2019-05-14T08:33:05.740Z,15.58
2019-05-14T08:35:34.201Z,15.99
2019-05-14T08:38:07.800Z,16.36
2019-05-14T08:40:28.717Z,16.62
2019-05-14T08:42:54.601Z,16.59
2019-05-14T08:45:20.394Z,17.09
2019-05-14T08:47:48.192Z,17.25
2019-05-14T08:50:18.581Z,17.50
2019-05-14T08:52:43.974Z,17.67
2019-05-14T08:55:13.810Z,17.87
2019-05-14T08:57:38.759Z,17.48
2019-05-14T09:00:05.066Z,17.36
2019-05-14T09:02:30.845Z,17.61
2019-05-14T09:05:02.766Z,18.00
2019-05-14T09:07:24.421Z,16.82
2019-05-14T09:09:50.220Z,16.71
2019-05-14T09:12:16.002Z,17.02
2019-05-14T09:14:41.807Z,18.15
2019-05-14T09:17:09.844Z,19.11
2019-05-14T09:19:39.441Z,19.27
2019-05-14T09:22:05.161Z,18.63
2019-05-14T09:24:30.961Z,17.56
2019-05-14T09:26:59.029Z,16.25
2019-05-14T09:29:26.207Z,15.75
2019-05-14T09:31:52.116Z,15.65
2019-05-14T09:34:19.607Z,15.17
2019-05-14T09:36:45.514Z,15.01
2019-05-14T09:39:12.234Z,14.35
2019-05-14T09:41:38.770Z,14.03
2019-05-14T09:44:04.795Z,14.06
2019-05-14T09:46:30.599Z,14.49
2019-05-14T09:48:56.376Z,16.01
2019-05-14T09:51:22.181Z,16.71
2019-05-14T09:53:48.943Z,16.62
2019-05-14T09:56:14.977Z,16.35
2019-05-14T09:58:40.776Z,15.62
2019-05-14T10:01:08.524Z,14.98
2019-05-14T10:03:34.273Z,14.69
2019-05-14T10:06:00.085Z,15.38
2019-05-14T10:08:28.364Z,15.24
2019-05-14T10:10:53.585Z,15.96
2019-05-14T10:13:19.371Z,16.79
2019-05-14T10:15:45.167Z,17.05
2019-05-14T10:18:12.115Z,17.35
2019-05-14T10:20:45.406Z,16.76
2019-05-14T10:23:05.934Z,17.12
2019-05-14T10:25:31.722Z,16.79
2019-05-14T10:27:59.087Z,17.01
2019-05-14T10:30:25.013Z,17.23
2019-05-14T10:32:50.809Z,18.05
2019-05-14T10:35:19.014Z,18.55
2019-05-14T10:37:44.388Z,18.69
2019-05-14T10:40:10.679Z,18.44
2019-05-14T10:42:39.977Z,19.19
2019-05-14T10:45:10.098Z,18.23
2019-05-14T10:47:33.992Z,16.54
2019-05-14T10:49:59.828Z,16.43
2019-05-14T10:52:25.682Z,15.64
2019-05-14T10:54:55.748Z,15.58
2019-05-14T10:57:19.174Z,16.89
2019-05-14T10:59:44.960Z,16.95
2019-05-14T11:02:11.930Z,16.20
2019-05-14T11:04:38.977Z,15.97
2019-05-14T11:07:04.961Z,16.78
2019-05-14T11:09:30.756Z,17.66
2019-05-14T11:11:58.371Z,18.25
2019-05-14T11:14:24.247Z,18.76
2019-05-14T11:16:50.031Z,18.10
2019-05-14T11:19:15.822Z,17.79
2019-05-14T11:21:41.608Z,18.20
2019-05-14T11:24:09.456Z,17.40
2019-05-14T11:26:35.090Z,17.38
2019-05-14T11:29:00.900Z,17.41
2019-05-14T11:31:29.280Z,17.23
2019-05-14T11:33:54.389Z,16.43
2019-05-14T11:36:20.176Z,15.59
2019-05-14T11:38:46.275Z,15.15
2019-05-14T11:41:12.076Z,15.40
2019-05-14T11:43:39.749Z,15.74
2019-05-14T11:46:08.411Z,16.14
2019-05-14T11:48:33.450Z,17.21
2019-05-14T11:50:59.600Z,17.24
2019-05-14T11:53:25.693Z,17.60
2019-05-14T11:55:51.483Z,17.56
2019-05-14T11:58:20.781Z,17.90
2019-05-14T12:00:45.887Z,17.11
2019-05-14T12:03:11.695Z,17.10
2019-05-14T12:05:38.850Z,17.54
2019-05-14T12:08:04.876Z,18.09
2019-05-14T12:10:30.665Z,18.28
2019-05-14T12:12:58.454Z,17.75
2019-05-14T12:15:24.143Z,17.07
2019-05-14T12:17:51.155Z,16.57
2019-05-14T12:20:17.836Z,16.16
2019-05-14T12:22:43.647Z,16.06
2019-05-14T12:25:09.531Z,16.08
2019-05-14T12:27:35.319Z,16.00
2019-05-14T12:30:01.315Z,16.82
2019-05-14T12:32:29.391Z,17.30
2019-05-14T12:34:54.791Z,17.80
2019-05-14T12:37:20.568Z,18.13
2019-05-14T12:39:46.368Z,17.42
2019-05-14T12:42:12.155Z,16.86
2019-05-14T12:44:40.774Z,15.89
2019-05-14T12:47:05.631Z,16.28
2019-05-14T12:49:31.432Z,17.04
2019-05-14T12:51:59.038Z,17.70
2019-05-14T12:54:24.909Z,17.62
2019-05-14T12:56:50.693Z,17.74
2019-05-14T12:59:16.489Z,17.76
2019-05-14T13:01:42.293Z,17.35
2019-05-14T13:04:08.564Z,17.50
2019-05-14T13:06:34.378Z,17.88
2019-05-14T13:09:00.170Z,18.38
2019-05-14T13:11:26.065Z,18.31
2019-05-14T13:13:51.848Z,18.03
2019-05-14T13:16:19.265Z,18.30
2019-05-14T13:18:45.390Z,18.04
2019-05-14T13:21:11.236Z,18.11
2019-05-14T13:23:38.297Z,17.66
2019-05-14T13:26:04.330Z,17.17
2019-05-14T13:28:30.120Z,17.43
2019-05-14T13:30:55.924Z,17.73
2019-05-14T13:33:21.702Z,17.46
2019-05-14T13:35:48.412Z,16.84
2019-05-14T13:38:14.745Z,16.47
2019-05-14T13:40:40.596Z,16.37
2019-05-14T13:43:09.650Z,16.46
2019-05-14T13:45:34.067Z,16.37
2019-05-14T13:47:59.853Z,16.20
2019-05-14T13:50:29.026Z,16.14
2019-05-14T13:53:06.873Z,16.06
2019-05-14T13:55:21.035Z,16.14
2019-05-14T13:57:48.677Z,16.20
2019-05-14T14:00:15.002Z,16.41
2019-05-14T14:02:40.827Z,16.59
2019-05-14T14:05:08.554Z,16.35
2019-05-14T14:07:34.414Z,16.31
2019-05-14T14:10:00.217Z,15.96
2019-05-14T14:12:31.781Z,15.96
2019-05-14T14:14:53.712Z,16.29
2019-05-14T14:17:19.507Z,16.16
2019-05-14T14:19:45.296Z,15.90
2019-05-14T14:22:11.100Z,15.93
2019-05-14T14:24:38.706Z,16.12
2019-05-14T14:27:04.586Z,16.07
2019-05-14T14:29:30.373Z,15.84
2019-05-14T14:31:56.172Z,15.94
2019-05-14T14:34:21.963Z,15.94
2019-05-14T14:36:49.987Z,16.46
2019-05-14T14:39:15.454Z,16.77
2019-05-14T14:41:41.261Z,16.87
2019-05-14T14:44:08.865Z,17.08
2019-05-14T14:46:34.826Z,16.22
2019-05-14T14:49:02.615Z,16.03
2019-05-14T14:51:28.610Z,15.93
2019-05-14T14:54:00.823Z,16.12
2019-05-14T14:56:22.118Z,15.76
2019-05-14T14:58:49.426Z,15.52
2019-05-14T15:01:15.410Z,15.15
2019-05-14T15:03:41.207Z,14.98
2019-05-14T15:06:09.603Z,14.90
2019-05-14T15:08:34.718Z,14.97
2019-05-14T15:11:00.511Z,15.04
2019-05-14T15:13:26.306Z,15.23
2019-05-14T15:15:52.108Z,15.33
2019-05-14T15:18:18.803Z,15.28
2019-05-14T15:20:45.024Z,15.20
2019-05-14T15:23:11.343Z,15.07
2019-05-14T15:25:40.269Z,14.87
2019-05-14T15:28:09.226Z,15.15
2019-05-14T15:30:34.253Z,15.09
2019-05-14T15:33:00.050Z,15.23
2019-05-14T15:35:28.356Z,15.17
2019-05-14T15:37:53.546Z,15.15
2019-05-14T15:40:22.379Z,14.76
2019-05-14T15:42:49.564Z,14.56
2019-05-14T15:45:14.925Z,14.80
2019-05-14T15:47:40.705Z,14.84
2019-05-14T15:50:09.228Z,14.99
2019-05-14T15:52:34.992Z,14.93
2019-05-14T15:55:00.784Z,15.14
2019-05-14T15:57:28.901Z,15.47
2019-05-14T15:59:54.280Z,15.59
2019-05-14T16:02:20.340Z,15.35
2019-05-14T16:04:46.177Z,15.23
2019-05-14T16:07:11.982Z,14.93
2019-05-14T16:09:39.712Z,14.82
2019-05-14T16:12:05.476Z,14.63
2019-05-14T16:14:31.272Z,14.53
2019-05-14T16:16:57.053Z,14.46
2019-05-14T16:19:22.850Z,14.60
2019-05-14T16:21:48.642Z,14.48
2019-05-14T16:24:14.438Z,14.44
2019-05-14T16:26:40.226Z,14.41
2019-05-14T16:29:08.712Z,14.37
2019-05-14T16:31:37.181Z,14.39
2019-05-14T16:34:01.392Z,14.51
2019-05-14T16:36:28.865Z,14.45
2019-05-14T16:38:54.796Z,14.29
2019-05-14T16:41:20.592Z,14.01
2019-05-14T16:43:49.179Z,13.96
2019-05-14T16:46:14.070Z,13.86
2019-05-14T16:48:39.980Z,13.83
2019-05-14T16:51:05.837Z,13.78
2019-05-14T16:53:31.624Z,13.82
2019-05-14T16:55:57.428Z,13.91
2019-05-14T16:58:23.211Z,13.81
2019-05-14T17:00:49.002Z,13.83
2019-05-14T17:03:14.817Z,13.85
2019-05-14T17:05:40.940Z,13.71
2019-05-14T17:08:09.907Z,13.59
2019-05-14T17:10:34.419Z,13.58
2019-05-14T17:13:01.785Z,13.57
2019-05-14T17:15:28.808Z,13.48
2019-05-14T17:17:55.022Z,13.43
2019-05-14T17:20:24.271Z,13.44
2019-05-14T17:22:48.829Z,13.51
2019-05-14T17:25:26.541Z,13.47
2019-05-14T17:27:42.744Z,13.50
2019-05-14T17:30:08.980Z,13.50
2019-05-14T17:32:34.914Z,13.32
2019-05-14T17:35:00.866Z,13.35
2019-05-14T17:37:28.607Z,13.34
2019-05-14T17:39:54.365Z,13.32
2019-05-14T17:42:20.169Z,13.25
2019-05-14T17:44:48.107Z,13.45
2019-05-14T17:47:13.651Z,13.35
2019-05-14T17:49:39.438Z,13.31
2019-05-14T17:52:05.240Z,13.34
2019-05-14T17:54:31.031Z,13.25
2019-05-14T17:56:59.033Z,13.16
2019-05-14T17:59:24.521Z,13.19
2019-05-14T18:01:50.303Z,13.14
2019-05-14T18:04:18.206Z,13.08
2019-05-14T18:06:43.801Z,13.02
2019-05-14T18:09:09.584Z,12.92
2019-05-14T18:11:35.381Z,12.74
2019-05-14T18:14:01.189Z,12.76
2019-05-14T18:16:28.512Z,12.77
2019-05-14T18:18:54.464Z,12.66
2019-05-14T18:21:20.262Z,12.65
2019-05-14T18:23:46.058Z,12.56
2019-05-14T18:26:11.870Z,12.52
2019-05-14T18:28:38.276Z,12.41
2019-05-14T18:31:04.242Z,12.22
2019-05-14T18:33:31.391Z,12.08
2019-05-14T18:35:58.984Z,11.97
2019-05-14T18:38:24.961Z,11.87
2019-05-14T18:40:50.744Z,11.82
2019-05-14T18:43:18.665Z,11.72
2019-05-14T18:45:44.222Z,11.57
2019-05-14T18:48:10.031Z,11.49
2019-05-14T18:50:35.836Z,11.48
2019-05-14T18:53:01.634Z,11.50
2019-05-14T18:55:29.272Z,11.28
2019-05-14T18:57:55.435Z,11.23
2019-05-14T19:00:21.499Z,11.13
2019-05-14T19:02:48.228Z,11.02
2019-05-14T19:05:14.235Z,10.91
2019-05-14T19:07:40.040Z,10.92
2019-05-14T19:10:06.423Z,10.85
2019-05-14T19:12:32.236Z,10.76
2019-05-14T19:14:59.012Z,10.59
2019-05-14T19:17:24.942Z,10.59
2019-05-14T19:19:50.755Z,10.52
2019-05-14T19:22:16.538Z,10.36
2019-05-14T19:24:42.340Z,10.32
2019-05-14T19:27:09.061Z,10.28
2019-05-14T19:29:35.019Z,10.21
2019-05-14T19:32:00.802Z,10.04
2019-05-14T19:34:28.729Z,10.00
2019-05-14T19:36:54.381Z,9.90
2019-05-14T19:39:20.188Z,9.82
2019-05-14T19:41:48.268Z,9.73
2019-05-14T19:44:13.695Z,9.74
2019-05-14T19:46:39.474Z,9.71
2019-05-14T19:49:05.284Z,9.69
2019-05-14T19:51:31.064Z,9.61
2019-05-14T19:53:58.538Z,9.56
2019-05-14T19:56:24.372Z,9.48
2019-05-14T19:58:50.187Z,9.29
2019-05-14T20:01:15.981Z,9.29
2019-05-14T20:03:41.753Z,9.24
2019-05-14T20:06:09.016Z,9.14
2019-05-14T20:08:34.983Z,9.09
2019-05-14T20:11:00.979Z,9.10
2019-05-14T20:13:28.594Z,9.03
2019-05-14T20:15:54.462Z,8.98
2019-05-14T20:18:20.244Z,8.93
2019-05-14T20:20:46.048Z,8.89
2019-05-14T20:23:11.831Z,8.88
2019-05-14T20:25:38.741Z,8.80
2019-05-14T20:28:04.725Z,8.53
2019-05-14T20:30:30.530Z,8.53
2019-05-14T20:32:59.070Z,8.45
2019-05-14T20:35:31.767Z,8.40
2019-05-14T20:37:52.732Z,8.27
2019-05-14T20:40:19.765Z,8.14
2019-05-14T20:42:45.534Z,8.09
2019-05-14T20:45:11.421Z,7.99
2019-05-14T20:47:39.143Z,7.98
2019-05-14T20:50:05.698Z,7.91
2019-05-14T20:52:31.502Z,7.82
2019-05-14T20:54:58.337Z,7.90
2019-05-14T20:57:28.782Z,7.92
2019-05-14T20:59:51.857Z,7.80
2019-05-14T21:02:18.571Z,7.80
2019-05-14T21:04:44.609Z,7.67
2019-05-14T21:07:10.482Z,7.55
2019-05-14T21:09:38.414Z,7.52
2019-05-14T21:12:03.970Z,7.55
2019-05-14T21:14:30.608Z,7.38
2019-05-14T21:16:56.408Z,7.36
2019-05-14T21:19:22.512Z,7.28
2019-05-14T21:21:49.179Z,7.26
2019-05-14T21:24:15.165Z,7.20
2019-05-14T21:26:40.974Z,7.17
2019-05-14T21:29:07.913Z,7.10
2019-05-14T21:31:34.141Z,7.05
2019-05-14T21:33:59.930Z,6.96
2019-05-14T21:36:28.233Z,6.86
2019-05-14T21:38:53.633Z,6.86
2019-05-14T21:41:20.435Z,6.86
2019-05-14T21:43:49.165Z,6.87
2019-05-14T21:46:14.514Z,6.91
2019-05-14T21:48:40.309Z,6.80
2019-05-14T21:51:08.687Z,6.74
2019-05-14T21:53:34.478Z,6.76
2019-05-14T21:56:00.271Z,6.66
2019-05-14T21:58:26.094Z,6.64
2019-05-14T22:00:53.077Z,6.57
2019-05-14T22:03:20.862Z,6.48
2019-05-14T22:05:48.241Z,6.41
2019-05-14T22:08:14.482Z,6.39
2019-05-14T22:10:40.651Z,6.37
2019-05-14T22:13:06.720Z,6.29
2019-05-14T22:15:33.156Z,6.26
2019-05-14T22:17:59.025Z,6.24
2019-05-14T22:20:24.841Z,6.20
2019-05-14T22:22:50.624Z,6.17
2019-05-14T22:25:18.762Z,6.10
2019-05-14T22:27:44.117Z,6.04
2019-05-14T22:30:11.314Z,6.10
2019-05-14T22:32:38.355Z,6.08
2019-05-14T22:35:08.549Z,5.98
2019-05-14T22:37:33.885Z,5.92
2019-05-14T22:39:59.687Z,5.88
2019-05-14T22:42:25.467Z,5.87
2019-05-14T22:44:51.268Z,5.84
2019-05-14T22:47:18.811Z,5.87
2019-05-14T22:49:44.751Z,5.84
2019-05-14T22:52:10.549Z,5.78
2019-05-14T22:54:38.469Z,5.72
2019-05-14T22:57:04.023Z,5.68
2019-05-14T22:59:29.833Z,5.69
2019-05-14T23:01:55.615Z,5.71
2019-05-14T23:04:21.418Z,5.63
2019-05-14T23:06:48.906Z,5.55
2019-05-14T23:09:18.437Z,5.55
2019-05-14T23:11:42.409Z,5.57
2019-05-14T23:14:08.213Z,5.47
2019-05-14T23:16:38.102Z,5.47
2019-05-14T23:19:01.738Z,5.39
2019-05-14T23:21:28.329Z,5.31
2019-05-14T23:23:54.209Z,5.28
2019-05-14T23:26:19.996Z,5.25
2019-05-14T23:28:47.087Z,5.19
2019-05-14T23:31:13.473Z,5.14
2019-05-14T23:33:39.262Z,5.08
2019-05-14T23:36:05.065Z,5.16
2019-05-14T23:38:31.041Z,5.11
2019-05-14T23:40:58.770Z,5.02
2019-05-14T23:43:24.633Z,5.02
2019-05-14T23:45:50.436Z,5.01
2019-05-14T23:48:18.688Z,4.96
2019-05-14T23:50:43.918Z,4.91
2019-05-14T23:53:09.698Z,4.92
2019-05-14T23:55:35.496Z,4.89
2019-05-14T23:58:01.285Z,4.86
